Latest Weather Observations for Flinders Island Airport

IDT60801

Issued at 9:31 pm EST Tuesday 4 August 2015 (issued every 30 minutes, with the page automatically refreshed every 10 minutes)

About weather observations | Map of weather stations | Latest weather observations for TAS | Other Formats
Station Details ID: 099005 Name: FLINDERS ISLAND AIRPORT Lat: -40.09 Lon: 148.00 Height: 9.0 m
Data from the previous 72 hours. | See also: Recent months at Flinders Island Airport
Date/Time
EST
Temp
°C
App
Temp
°C
Dew
Point
Rel
Hum
%
Delta-T
°C
Wind Press
QNH
hPa
Press
MSL
hPa
Rain
since 9 am
mm
Dir
 
Spd
km/h
Gust
km/h
Spd
kts
Gust
kts
04/09:30pm 9.5 0.9 8.1 91 0.7 WNW 43 57 23 31 1007.2 1007.2 1.4
04/09:19pm 9.1 -0.2 7.7 91 0.7 NW 46 61 25 33 1007.5 1007.5 1.2
04/09:06pm 9.4 0.2 7.8 90 0.8 NW 46 72 25 39 1007.7 1007.7 1.2
04/09:05pm 9.4 0.2 7.8 90 0.8 NW 46 72 25 39 1007.7 1007.7 1.2
04/09:01pm 9.5 0.6 7.8 89 0.8 NW 44 63 24 34 1007.5 1007.5 1.2
04/09:00pm 9.6 0.7 7.7 88 0.9 NW 44 63 24 34 1007.6 1007.6 1.2
04/08:51pm 9.7 0.8 7.6 87 1.0 NW 44 61 24 33 1007.5 1007.5 1.0
04/08:31pm 9.5 -0.2 7.4 87 1.0 NW 48 70 26 38 1007.9 1007.9 1.0
04/08:30pm 9.6 -0.1 7.5 87 1.0 NW 48 65 26 35 1007.9 1007.9 1.0
04/08:22pm 9.5 0.2 7.6 88 0.9 NW 46 59 25 32 1007.9 1007.9 1.0
04/08:11pm 9.5 -0.1 7.8 89 0.8 WNW 48 69 26 37 1008.1 1008.1 1.0
04/08:04pm 9.4 0.5 7.8 90 0.8 WNW 44 57 24 31 1008.1 1008.1 1.0
04/08:00pm 9.4 0.2 8.0 91 0.7 WNW 46 59 25 32 1008.3 1008.3 1.0
04/07:31pm 9.4 0.5 7.5 88 0.9 NW 44 63 24 34 1008.8 1008.8 0.8
04/07:30pm 9.4 0.1 7.5 88 0.9 NW 46 63 25 34 1008.9 1008.9 0.8
04/07:08pm 9.1 0.4 7.5 90 0.8 WNW 43 61 23 33 1009.3 1009.3 0.6
04/07:00pm 9.3 0.0 7.6 89 0.8 WNW 46 61 25 33 1009.4 1009.5 0.6
04/06:59pm 9.3 0.0 7.6 89 0.8 WNW 46 61 25 33 1009.4 1009.5 0.6
04/06:49pm 9.3 0.0 7.4 88 0.9 WNW 46 63 25 34 1009.5 1009.6 0.6
04/06:30pm 9.5 0.7 7.3 86 1.0 WNW 43 67 23 36 1009.7 1009.8 0.4
04/06:08pm 9.9 1.4 7.0 82 1.4 WNW 41 59 22 32 1009.8 1009.9 0.4
04/06:00pm 9.8 0.9 6.9 82 1.4 WNW 43 59 23 32 1010.0 1010.1 0.4
04/05:46pm 9.9 1.8 6.8 81 1.5 WNW 39 69 21 37 1010.0 1010.1 0.4
04/05:43pm 9.8 1.7 6.9 82 1.4 WNW 39 56 21 30 1010.0 1010.1 0.4
04/05:33pm 9.9 1.3 6.6 80 1.5 WNW 41 59 22 32 1010.2 1010.3 0.4
04/05:30pm 9.8 0.8 6.5 80 1.5 WNW 43 63 23 34 1010.3 1010.4 0.4
04/05:00pm 10.1 1.4 5.9 75 1.9 WNW 41 61 22 33 1010.5 1010.6 0.4
04/04:33pm 10.2 2.3 6.4 77 1.8 WNW 37 56 20 30 1011.1 1011.2 0.4
04/04:30pm 10.3 2.4 6.3 76 1.9 WNW 37 52 20 28 1011.2 1011.3 0.4
04/04:00pm 10.5 2.4 5.1 69 2.5 WNW 37 52 20 28 1011.7 1011.8 0.4
04/03:37pm 10.5 1.7 5.7 72 2.2 WNW 41 59 22 32 1012.0 1012.1 0.4
04/03:30pm 10.2 1.0 5.6 73 2.1 WNW 43 56 23 30 1012.1 1012.2 0.4
04/03:26pm 10.1 2.1 5.7 74 2.0 WNW 37 56 20 30 1012.2 1012.3 0.4
04/03:00pm 10.3 1.4 5.3 71 2.3 W 41 54 22 29 1012.5 1012.6 0.4
04/02:30pm 10.3 0.9 5.3 71 2.3 WNW 44 56 24 30 1012.8 1012.9 0.4
04/02:00pm 10.2 0.9 5.0 70 2.3 WNW 43 57 23 31 1013.4 1013.5 0.4
04/01:30pm 10.4 1.8 4.8 68 2.5 W 39 50 21 27 1013.9 1014.0 0.4
04/01:00pm 10.3 2.6 5.3 71 2.3 W 35 52 19 28 1014.3 1014.4 0.4
04/12:30pm 10.6 1.9 3.9 63 3.0 W 39 52 21 28 1015.1 1015.2 0.4
04/12:00pm 9.5 0.8 6.0 79 1.6 W 41 52 22 28 1015.8 1015.9 0.4
04/11:52am 10.3 2.8 6.1 75 1.9 W 35 50 19 27 1016.0 1016.1 0.4
04/11:37am 8.6 0.5 5.2 79 1.5 W 37 57 20 31 1016.5 1016.6 0.4
04/11:31am 10.3 3.1 5.9 74 2.0 WNW 33 57 18 31 1016.5 1016.6 0.4
04/11:30am 10.2 3.2 5.8 74 2.0 WNW 32 41 17 22 1016.5 1016.6 0.4
04/11:00am 8.1 0.5 5.6 84 1.1 W 35 56 19 30 1017.1 1017.2 0.4
04/10:53am 8.8 2.2 5.9 82 1.3 W 30 56 16 30 1017.2 1017.3 0.0
04/10:30am 9.3 0.7 4.9 74 2.0 W 39 56 21 30 1017.5 1017.6 0.0
04/10:20am 9.6 2.1 4.4 70 2.3 W 33 52 18 28 1017.4 1017.5 0.0
04/10:00am 8.8 1.4 5.2 78 1.6 W 33 43 18 23 1017.6 1017.7 0.0
04/09:30am 8.5 1.2 4.5 76 1.8 W 32 46 17 25 1017.7 1017.8 0.0
04/09:00am 8.6 0.0 2.4 65 2.6 W 37 48 20 26 1017.8 1017.9 0.0
04/08:30am 7.7 0.6 3.7 76 1.7 W 30 35 16 19 1018.3 1018.3 0.0
04/08:13am 8.6 1.4 2.8 67 2.5 W 30 52 16 28 1018.3 1018.3 0.0
04/08:00am 8.3 1.7 2.3 66 2.5 W 26 33 14 18 1018.5 1018.5 0.0
04/07:30am 7.6 0.6 1.7 66 2.4 W 28 37 15 20 1018.5 1018.5 0.0
04/07:00am 8.1 -0.1 0.6 59 3.0 WSW 33 41 18 22 1018.4 1018.4 0.0
04/06:30am 8.0 0.0 0.5 59 3.0 W 32 37 17 20 1018.3 1018.3 0.0
04/06:00am 7.9 -0.7 0.2 58 3.0 WSW 35 44 19 24 1018.2 1018.2 0.0
04/05:30am 7.7 -0.4 0.0 58 3.0 WSW 32 39 17 21 1018.2 1018.2 0.0
04/05:00am 7.5 -0.5 0.7 62 2.7 W 32 39 17 21 1018.2 1018.2 0.0
04/04:30am 7.5 -0.8 -0.5 57 3.1 WSW 33 41 18 22 1018.3 1018.3 0.0
04/04:00am 7.4 -0.4 1.9 68 2.2 WSW 32 39 17 21 1018.4 1018.4 0.0
04/03:30am 7.6 -0.9 0.8 62 2.7 WSW 35 41 19 22 1018.5 1018.5 0.0
04/03:00am 7.4 -0.5 1.3 65 2.5 WSW 32 37 17 20 1018.6 1018.6 0.0
04/02:30am 7.4 -0.3 0.2 60 2.8 WSW 30 39 16 21 1018.7 1018.7 0.0
04/02:00am 7.3 -0.8 1.0 64 2.5 WSW 33 43 18 23 1018.8 1018.8 0.0
04/01:30am 7.6 -0.6 0.3 60 2.9 SW 33 41 18 22 1018.8 1018.8 0.0
04/01:00am 7.7 -0.4 1.3 64 2.6 SW 33 43 18 23 1018.7 1018.7 0.0
04/12:30am 7.7 -0.3 0.7 61 2.8 SW 32 39 17 21 1019.0 1019.0 0.0
04/12:00am 7.8 0.3 1.2 63 2.7 SW 30 35 16 19 1019.1 1019.1 0.0
 
Date/Time
EST
Temp
°C
App
Temp
°C
Dew
Point
Rel
Hum
%
Delta-T
°C
Wind Press
QNH
hPa
Press
MSL
hPa
Rain
since 9 am
mm
Dir
 
Spd
km/h
Gust
km/h
Spd
kts
Gust
kts
03/11:30pm 7.8 -0.3 1.0 62 2.7 SW 33 41 18 22 1018.9 1018.9 0.0
03/11:00pm 7.7 -1.1 1.3 64 2.6 SW 37 46 20 25 1018.7 1018.7 0.0
03/10:30pm 7.9 -1.0 0.9 61 2.8 SW 37 48 20 26 1018.8 1018.8 0.0
03/10:00pm 7.8 -1.8 1.0 62 2.7 SW 41 50 22 27 1018.8 1018.8 0.0
03/09:30pm 7.7 -1.0 1.8 66 2.4 WSW 37 48 20 26 1018.5 1018.5 0.0
03/09:00pm 7.8 -1.4 1.4 64 2.6 WSW 39 48 21 26 1018.2 1018.2 0.0
03/08:30pm 7.6 -2.3 1.7 66 2.4 WSW 43 48 23 26 1017.8 1017.9 0.0
03/08:00pm 7.6 -2.4 1.9 67 2.3 WSW 44 54 24 29 1017.2 1017.3 0.0
03/07:30pm 7.7 -3.5 1.8 66 2.4 WSW 50 61 27 33 1016.7 1016.8 0.0
03/07:00pm 7.6 -3.2 1.7 66 2.4 WSW 48 61 26 33 1016.1 1016.2 0.0
03/06:30pm 7.8 -3.1 1.6 65 2.5 WSW 48 57 26 31 1015.7 1015.8 0.0
03/06:00pm 7.9 -3.7 1.5 64 2.6 WSW 52 67 28 36 1014.8 1014.9 0.0
03/05:30pm 7.8 -4.1 2.1 67 2.4 WSW 54 65 29 35 1014.3 1014.4 0.0
03/05:00pm 8.1 -4.4 0.8 60 2.9 WSW 56 70 30 38 1013.5 1013.6 0.0
03/04:30pm 8.1 -5.0 0.8 60 2.9 WSW 59 76 32 41 1012.6 1012.7 0.0
03/04:00pm 8.4 -4.0 2.6 67 2.4 WSW 57 70 31 38 1012.4 1012.5 0.0
03/03:50pm 8.3 -4.0 2.1 65 2.6 WSW 56 74 30 40 1012.1 1012.2 0.0
03/03:30pm 8.3 -4.3 1.2 61 2.9 WSW 57 70 31 38 1011.8 1011.9 0.0
03/03:21pm 8.5 -4.0 2.1 64 2.7 WSW 57 76 31 41 1011.8 1011.9 0.0
03/03:00pm 8.4 -3.9 2.0 64 2.7 WSW 56 70 30 38 1011.3 1011.4 0.0
03/02:30pm 8.5 -4.0 2.3 65 2.6 WSW 57 72 31 39 1011.0 1011.1 0.0
03/02:00pm 8.3 -4.7 1.2 61 2.9 WSW 59 80 32 43 1010.5 1010.6 0.0
03/01:57pm 8.0 -5.5 0.7 60 2.9 WSW 61 80 33 43 1010.4 1010.5 0.0
03/01:30pm 8.3 -5.1 1.0 60 2.9 WSW 61 78 33 42 1010.1 1010.2 0.0
03/01:03pm 8.3 -4.0 2.3 66 2.5 WSW 56 74 30 40 1010.2 1010.3 0.0
03/01:00pm 7.6 -5.1 0.6 61 2.8 WSW 57 74 31 40 1010.0 1010.1 0.0
03/12:31pm 8.3 -4.7 1.5 62 2.8 WSW 59 78 32 42 1009.8 1009.9 0.0
03/12:30pm 8.3 -4.9 2.1 65 2.6 WSW 61 78 33 42 1009.8 1009.9 0.0
03/12:00pm 7.9 -5.0 1.7 65 2.5 WSW 59 74 32 40 1009.5 1009.6 0.0
03/11:30am 7.6 -5.1 1.0 63 2.6 WSW 57 72 31 39 1009.1 1009.1 0.0
03/11:01am 7.6 -5.0 0.1 59 2.9 WSW 56 74 30 40 1009.0 1009.0 0.0
03/11:00am 7.7 -5.1 0.4 60 2.9 WSW 57 74 31 40 1009.0 1009.0 0.0
03/10:30am 7.6 -4.6 0.6 61 2.8 WSW 54 67 29 36 1008.5 1008.5 0.0
03/10:03am 7.3 -5.9 -0.2 59 2.9 WSW 59 78 32 42 1007.9 1007.9 0.0
03/10:00am 7.2 -6.8 -0.3 59 2.9 WSW 63 78 34 42 1007.7 1007.7 0.0
03/09:30am 6.8 -5.4 0.0 62 2.6 WSW 54 72 29 39 1007.2 1007.2 0.0
03/09:01am 6.6 -5.2 0.7 66 2.3 WSW 52 70 28 38 1006.9 1006.9 0.0
03/09:00am 6.6 -5.1 1.3 69 2.1 WSW 52 65 28 35 1006.9 1006.9 5.2
03/08:37am 6.0 -3.9 1.9 75 1.7 SW 43 61 23 33 1006.7 1006.7 5.2
03/08:30am 6.1 -4.8 1.6 73 1.8 SW 48 61 26 33 1006.5 1006.5 5.2
03/08:00am 6.5 -5.1 1.4 70 2.1 WSW 52 70 28 38 1005.7 1005.7 5.2
03/07:32am 5.7 -7.8 0.7 70 2.0 WSW 61 80 33 43 1005.4 1005.4 5.2
03/07:30am 5.4 -8.4 0.8 72 1.8 WSW 63 80 34 43 1005.3 1005.3 5.2
03/07:00am 6.6 -8.0 0.9 67 2.3 WSW 67 85 36 46 1004.3 1004.3 5.2
03/06:53am 6.3 -7.6 0.2 65 2.4 WSW 63 83 34 45 1004.2 1004.2 5.2
03/06:30am 6.3 -6.5 2.4 76 1.6 W 59 76 32 41 1003.8 1003.8 5.2
03/06:24am 5.9 -6.5 1.4 73 1.8 W 56 76 30 41 1003.6 1003.6 5.2
03/06:14am 5.8 -6.5 3.3 84 1.0 WSW 57 74 31 40 1003.6 1003.6 5.2
03/06:00am 5.3 -9.2 3.5 88 0.8 WSW 69 102 37 55 1003.5 1003.5 5.2
03/05:57am 4.8 -9.5 2.7 86 0.9 WSW 67 102 36 55 1003.4 1003.4 5.2
03/05:55am 4.9 -9.1 1.9 81 1.2 WSW 65 102 35 55 1003.5 1003.5 5.2
03/05:53am 5.8 -7.1 1.9 76 1.6 WSW 59 102 32 55 1003.0 1003.0 5.0
03/05:52am 6.7 -5.6 2.2 73 1.8 WSW 56 102 30 55 1003.0 1003.0 5.0
03/05:34am 6.9 -5.8 2.8 75 1.7 WSW 59 78 32 42 1002.8 1002.8 5.0
03/05:30am 7.1 -6.1 2.4 72 1.9 WSW 61 78 33 42 1002.5 1002.5 5.0
03/05:16am 7.3 -6.8 1.8 68 2.2 WSW 65 95 35 51 1002.1 1002.1 4.8
03/05:00am 8.0 -5.3 1.6 64 2.6 WSW 61 76 33 41 1001.8 1001.8 4.8
03/04:43am 7.9 -4.3 2.8 70 2.1 W 56 74 30 40 1001.7 1001.7 4.8
03/04:30am 7.5 -5.8 1.8 67 2.3 W 61 76 33 41 1001.5 1001.5 4.8
03/04:00am 6.9 -6.9 3.0 76 1.6 WSW 65 83 35 45 1001.3 1001.3 4.8
03/03:44am 7.3 -4.3 3.9 79 1.5 WSW 54 76 29 41 1000.9 1000.9 4.8
03/03:37am 7.3 -4.2 4.4 82 1.3 WSW 54 67 29 36 1001.2 1001.2 4.8
03/03:33am 7.0 -4.4 4.7 85 1.0 WSW 54 67 29 36 1001.4 1001.4 4.8
03/03:31am 6.9 -4.5 4.9 87 0.9 WSW 54 69 29 37 1001.4 1001.4 4.8
03/03:30am 7.1 -4.2 5.4 89 0.8 WSW 54 69 29 37 1001.4 1001.4 4.8
03/03:21am 6.8 -6.2 5.4 91 0.6 W 63 82 34 44 1001.7 1001.7 4.6
03/03:14am 6.1 -6.4 4.1 87 0.9 W 59 80 32 43 1001.7 1001.7 4.2
03/03:13am 6.6 -5.6 3.9 83 1.2 W 57 80 31 43 1001.6 1001.6 4.0
03/03:00am 7.5 -4.0 4.5 81 1.3 WSW 54 67 29 36 1001.2 1001.2 3.4
03/02:50am 7.5 -3.5 5.0 84 1.1 WSW 52 65 28 35 1001.3 1001.3 3.4
03/02:40am 7.1 -4.7 4.8 85 1.0 WSW 56 74 30 40 1001.1 1001.1 3.4
03/02:35am 7.5 -4.8 5.3 86 1.0 WSW 59 74 32 40 1001.1 1001.1 3.4
03/02:30am 7.4 -5.0 4.9 84 1.1 WSW 59 76 32 41 1001.1 1001.1 3.4
03/02:00am 7.9 -4.6 4.1 77 1.7 W 59 85 32 46 1001.0 1001.0 3.4
03/01:58am 8.1 -3.9 4.7 79 1.5 W 57 85 31 46 1001.2 1001.2 3.4
03/01:57am 8.1 -3.7 5.0 81 1.4 W 56 85 30 46 1001.3 1001.3 3.4
03/01:37am 8.1 -1.2 5.7 85 1.1 WNW 44 67 24 36 1001.4 1001.4 3.0
03/01:35am 8.0 -1.2 5.3 83 1.2 WNW 43 61 23 33 1001.4 1001.4 2.8
03/01:30am 8.2 -1.3 5.1 81 1.4 WNW 44 61 24 33 1001.4 1001.4 2.6
03/01:16am 8.0 -2.5 5.6 85 1.1 W 50 72 27 39 1001.5 1001.5 2.6
03/01:08am 7.8 -2.7 5.8 87 0.9 W 50 63 27 34 1001.7 1001.7 2.6
03/01:00am 7.5 -2.6 5.8 89 0.8 W 48 69 26 37 1001.7 1001.7 2.6
03/12:43am 7.8 -4.0 4.7 81 1.4 W 56 96 30 52 1001.7 1001.7 2.2
03/12:30am 9.9 -1.1 5.1 72 2.2 WNW 52 72 28 39 1001.3 1001.3 2.2
03/12:04am 8.8 -0.4 6.2 84 1.2 WNW 44 63 24 34 1001.8 1001.8 2.2
03/12:00am 8.6 -0.7 6.1 84 1.1 WNW 44 63 24 34 1001.9 1001.9 2.2
 
Date/Time
EST
Temp
°C
App
Temp
°C
Dew
Point
Rel
Hum
%
Delta-T
°C
Wind Press
QNH
hPa
Press
MSL
hPa
Rain
since 9 am
mm
Dir
 
Spd
km/h
Gust
km/h
Spd
kts
Gust
kts
02/11:45pm 8.4 -3.0 4.8 78 1.6 WNW 54 78 29 42 1002.1 1002.1 2.0
02/11:38pm 10.2 -0.5 4.8 69 2.4 WNW 50 69 27 37 1002.0 1002.0 2.0
02/11:30pm 10.2 0.3 5.0 70 2.3 WNW 46 63 25 34 1002.1 1002.1 2.0
02/11:13pm 9.2 0.4 5.4 77 1.7 WNW 41 59 22 32 1002.3 1002.3 2.0
02/11:00pm 8.6 0.1 5.2 79 1.5 WNW 39 54 21 29 1002.8 1002.8 2.0
02/10:33pm 8.3 -2.0 4.7 78 1.6 W 48 70 26 38 1003.1 1003.1 2.0
02/10:30pm 8.3 -1.9 5.2 81 1.4 W 48 70 26 38 1003.2 1003.2 2.0
02/10:27pm 8.5 -1.3 5.3 80 1.4 W 46 70 25 38 1003.0 1003.0 2.0
02/10:21pm 8.2 -2.3 5.5 83 1.2 WNW 50 80 27 43 1003.5 1003.5 2.0
02/10:16pm 7.8 -2.1 4.7 81 1.4 WNW 46 80 25 43 1003.4 1003.4 2.0
02/10:15pm 7.9 -2.1 4.5 79 1.5 WNW 46 80 25 43 1003.6 1003.6 1.8
02/10:12pm 9.1 0.5 4.7 74 2.0 WNW 39 67 21 36 1003.5 1003.5 1.6
02/10:00pm 8.2 -0.6 5.5 83 1.2 WNW 41 63 22 34 1003.6 1003.6 1.6
02/09:59pm 8.1 -1.1 5.6 84 1.1 WNW 43 63 23 34 1003.6 1003.6 1.6
02/09:56pm 8.1 -2.4 5.7 85 1.1 WNW 50 76 27 41 1003.7 1003.7 1.6
02/09:50pm 8.2 -2.7 5.5 83 1.2 WNW 52 76 28 41 1003.9 1003.9 1.6
02/09:49pm 8.3 -2.6 5.4 82 1.3 WNW 52 76 28 41 1003.8 1003.8 1.6
02/09:48pm 8.4 -2.2 5.3 81 1.4 WNW 50 76 27 41 1003.8 1003.8 1.6
02/09:41pm 9.2 0.2 4.8 74 2.0 WNW 41 59 22 32 1003.6 1003.6 1.6
02/09:30pm 9.6 0.0 3.4 65 2.7 WNW 43 56 23 30 1003.5 1003.5 1.6
02/09:00pm 9.7 0.8 3.2 64 2.8 WNW 39 57 21 31 1004.2 1004.2 1.6
02/08:55pm 9.6 0.8 3.8 67 2.5 WNW 39 57 21 31 1004.2 1004.2 1.6
02/08:30pm 9.6 0.9 4.0 68 2.5 WNW 39 56 21 30 1004.2 1004.2 1.6
02/08:19pm 9.7 0.9 3.7 66 2.6 WNW 39 57 21 31 1004.0 1004.0 1.6
02/08:00pm 9.6 -0.5 4.0 68 2.5 W 46 57 25 31 1004.3 1004.3 1.6
02/07:30pm 9.3 -1.0 4.5 72 2.1 W 48 59 26 32 1004.4 1004.4 1.6
02/07:02pm 9.1 -0.6 3.9 70 2.3 W 44 63 24 34 1004.3 1004.3 1.6
02/07:00pm 9.0 -0.6 4.2 72 2.1 W 44 57 24 31 1004.2 1004.2 1.6
02/06:45pm 9.7 -1.1 4.1 68 2.5 W 50 69 27 37 1004.0 1004.0 1.6
02/06:30pm 9.7 0.0 4.1 68 2.5 WNW 44 61 24 33 1004.0 1004.0 1.6
02/06:06pm 9.5 0.9 4.7 72 2.1 WNW 39 57 21 31 1003.5 1003.5 1.6
02/06:00pm 9.4 0.4 4.8 73 2.1 WNW 41 56 22 30 1003.7 1003.7 1.6
02/05:30pm 9.0 0.0 4.4 73 2.0 WNW 41 50 22 27 1003.6 1003.6 1.6
02/05:00pm 8.9 1.0 4.5 74 2.0 W 35 46 19 25 1003.4 1003.4 1.6
02/04:30pm 9.0 -0.9 4.8 75 1.9 WSW 46 56 25 30 1003.2 1003.2 1.6
02/04:16pm 9.0 -2.3 5.4 78 1.6 W 54 63 29 34 1003.2 1003.2 1.6
02/04:06pm 9.1 -1.7 6.2 82 1.3 W 52 70 28 38 1002.9 1002.9 1.4
02/04:04pm 9.3 -0.9 6.9 85 1.1 W 50 70 27 38 1002.9 1002.9 1.4
02/04:00pm 9.2 -0.5 7.5 89 0.8 W 48 59 26 32 1002.8 1002.8 1.4
02/03:34pm 8.9 -1.6 7.2 89 0.8 WNW 52 74 28 40 1002.5 1002.5 1.0
02/03:30pm 8.6 -3.4 6.6 87 0.9 WNW 59 95 32 51 1002.5 1002.5 0.8
02/03:28pm 8.7 -3.4 6.3 85 1.1 WNW 59 95 32 51 1002.4 1002.4 0.8
02/03:23pm 9.2 -2.3 6.3 82 1.3 WNW 56 95 30 51 1002.4 1002.4 0.8
02/03:22pm 9.5 -1.6 6.4 81 1.4 WNW 54 95 29 51 1002.3 1002.3 0.6
02/03:00pm 10.8 0.5 6.4 74 2.1 NW 50 70 27 38 1001.9 1001.9 0.0
02/02:30pm 11.1 1.1 6.3 72 2.2 NW 48 67 26 36 1002.3 1002.3 0.0
02/02:00pm 11.1 0.7 6.0 71 2.4 NW 50 72 27 39 1002.3 1002.3 0.0
02/01:32pm 11.2 2.2 6.3 72 2.3 NW 43 61 23 33 1002.9 1002.9 0.0
02/01:30pm 11.3 2.7 6.4 72 2.3 NW 41 56 22 30 1003.0 1003.0 0.0
02/01:00pm 11.6 2.1 6.5 71 2.4 NW 46 65 25 35 1003.6 1003.6 0.0
02/12:40pm 10.9 1.7 6.5 74 2.1 NW 44 63 24 34 1004.1 1004.1 0.0
02/12:30pm 10.9 1.4 6.6 75 2.0 NW 46 57 25 31 1004.3 1004.3 0.0
02/12:00pm 10.7 0.4 6.5 75 2.0 NW 50 69 27 37 1005.1 1005.1 0.0
02/11:41am 10.9 1.3 6.3 73 2.2 NW 46 67 25 36 1005.6 1005.6 0.0
02/11:30am 10.9 1.7 6.3 73 2.2 NW 44 61 24 33 1005.8 1005.8 0.0
02/11:15am 10.6 1.4 6.2 74 2.0 NW 44 63 24 34 1006.1 1006.1 0.0
02/11:00am 11.2 2.6 6.7 74 2.1 NW 41 54 22 29 1006.3 1006.3 0.0
02/10:30am 10.8 1.8 6.4 74 2.1 NW 43 56 23 30 1006.8 1006.8 0.0
02/10:05am 10.8 2.2 6.7 76 1.9 NW 41 59 22 32 1007.1 1007.1 0.0
02/10:00am 10.8 2.6 6.6 75 2.0 NW 39 52 21 28 1007.2 1007.2 0.0
02/09:33am 10.5 3.0 6.3 75 2.0 NW 35 54 19 29 1007.6 1007.6 0.0
02/09:30am 10.4 2.9 6.2 75 2.0 NW 35 50 19 27 1007.6 1007.6 0.0
02/09:00am 10.2 2.0 6.5 78 1.7 NW 39 52 21 28 1008.0 1008.0 1.2
02/08:44am 10.5 2.6 6.3 75 2.0 NW 37 56 20 30 1008.1 1008.1 1.2
02/08:30am 10.3 2.6 5.5 72 2.2 NW 35 43 19 23 1008.3 1008.3 1.2
02/08:00am 10.0 2.8 5.8 75 1.9 NW 33 48 18 26 1008.5 1008.5 1.2
02/07:30am 9.5 2.5 5.9 78 1.7 NW 32 44 17 24 1008.6 1008.6 1.2
02/07:19am 9.4 3.2 6.3 81 1.4 WNW 28 44 15 24 1008.6 1008.6 1.2
02/07:07am 9.0 2.2 6.8 86 1.0 WNW 32 41 17 22 1008.8 1008.8 1.2
02/07:00am 9.2 2.2 6.8 85 1.1 W 33 46 18 25 1008.8 1008.8 1.0
02/06:30am 8.6 3.3 6.6 87 0.9 NW 24 32 13 17 1008.8 1008.8 1.0
02/06:00am 8.6 2.5 6.6 87 0.9 NW 28 37 15 20 1009.1 1009.1 1.0
02/05:30am 8.6 2.5 6.7 88 0.9 WNW 28 39 15 21 1009.4 1009.5 1.0
02/05:00am 8.6 2.1 6.6 87 0.9 WNW 30 44 16 24 1009.7 1009.8 1.0
02/04:49am 8.6 3.8 7.2 91 0.7 WNW 22 32 12 17 1009.9 1010.0 1.0
02/04:34am 8.5 2.4 6.5 87 0.9 WNW 28 52 15 28 1010.1 1010.2 0.8
02/04:32am 8.6 2.5 6.4 86 1.0 WNW 28 52 15 28 1010.1 1010.2 0.8
02/04:30am 8.7 2.9 6.2 84 1.1 WNW 26 52 14 28 1010.2 1010.3 0.8
02/04:00am 9.2 2.7 6.3 82 1.3 WNW 30 39 16 21 1010.2 1010.3 0.2
02/03:30am 8.5 2.4 6.5 87 0.9 W 28 39 15 21 1010.6 1010.7 0.2
02/03:00am 8.5 3.5 6.3 86 1.0 WNW 22 32 12 17 1010.9 1011.0 0.0
02/02:30am 9.9 3.4 4.5 69 2.4 WNW 28 39 15 21 1011.2 1011.3 0.0
02/02:00am 10.0 3.2 3.3 63 2.9 WNW 28 37 15 20 1011.5 1011.6 0.0
02/01:30am 9.8 2.3 3.3 64 2.8 WNW 32 41 17 22 1011.7 1011.8 0.0
02/01:00am 9.8 2.9 4.6 70 2.3 W 30 37 16 20 1011.8 1011.9 0.0
02/12:30am 9.7 2.1 4.1 68 2.5 WNW 33 43 18 23 1012.1 1012.2 0.0
02/12:00am 9.0 2.9 5.0 76 1.8 WNW 26 39 14 21 1012.2 1012.3 0.0
 
Date/Time
EST
Temp
°C
App
Temp
°C
Dew
Point
Rel
Hum
%
Delta-T
°C
Wind Press
QNH
hPa
Press
MSL
hPa
Rain
since 9 am
mm
Dir
 
Spd
km/h
Gust
km/h
Spd
kts
Gust
kts
01/11:39pm 9.9 3.1 4.9 71 2.2 WNW 30 50 16 27 1012.5 1012.6 0.0
01/11:30pm 9.7 3.2 4.7 71 2.2 WNW 28 37 15 20 1012.5 1012.6 0.0
01/11:00pm 10.1 2.8 4.7 69 2.4 WNW 32 39 17 21 1012.7 1012.8 0.0
01/10:30pm 9.7 3.6 4.7 71 2.2 WNW 26 33 14 18 1013.0 1013.1 0.0
01/10:00pm 9.5 2.5 4.1 69 2.4 WNW 30 39 16 21 1012.9 1013.0 0.0

Other Formats:

Comma delimited format used in spreadsheet applications
http://www.bom.gov.au/fwo/IDT60801/IDT60801.94980.axf

JavaScript Object Notation format (JSON) in row-major order
http://www.bom.gov.au/fwo/IDT60801/IDT60801.94980.json